sensor_id;sensor_type;location;lat;lon;timestamp;P1;durP1;ratioP1;P2;durP2;ratioP2
22007;SDS011;11168;56.976;24.168;2022-09-09T00:05:27;1.95;;;1.05;;
22007;SDS011;11168;56.976;24.168;2022-09-09T00:07:58;1.90;;;0.60;;
22007;SDS011;11168;56.976;24.168;2022-09-09T00:10:39;1.33;;;0.70;;
22007;SDS011;11168;56.976;24.168;2022-09-09T00:15:38;0.98;;;0.70;;
22007;SDS011;11168;56.976;24.168;2022-09-09T00:20:49;4.18;;;0.60;;
22007;SDS011;11168;56.976;24.168;2022-09-09T00:23:25;4.70;;;0.75;;
22007;SDS011;11168;56.976;24.168;2022-09-09T00:26:06;1.92;;;0.55;;
22007;SDS011;11168;56.976;24.168;2022-09-09T00:28:41;3.28;;;0.70;;
22007;SDS011;11168;56.976;24.168;2022-09-09T00:31:13;1.17;;;0.60;;
22007;SDS011;11168;56.976;24.168;2022-09-09T00:33:42;4.05;;;0.85;;
22007;SDS011;11168;56.976;24.168;2022-09-09T00:36:14;2.15;;;0.68;;
22007;SDS011;11168;56.976;24.168;2022-09-09T00:38:43;1.90;;;0.75;;
22007;SDS011;11168;56.976;24.168;2022-09-09T00:41:20;5.43;;;0.80;;
22007;SDS011;11168;56.976;24.168;2022-09-09T00:49:24;1.42;;;0.60;;
22007;SDS011;11168;56.976;24.168;2022-09-09T01:02:16;2.45;;;0.70;;
22007;SDS011;11168;56.976;24.168;2022-09-09T01:04:45;3.45;;;0.63;;
22007;SDS011;11168;56.976;24.168;2022-09-09T01:07:16;2.15;;;0.60;;
22007;SDS011;11168;56.976;24.168;2022-09-09T01:09:50;1.48;;;0.82;;
22007;SDS011;11168;56.976;24.168;2022-09-09T01:17:58;1.88;;;0.80;;
22007;SDS011;11168;56.976;24.168;2022-09-09T01:28:12;3.45;;;0.70;;
22007;SDS011;11168;56.976;24.168;2022-09-09T01:30:41;1.30;;;0.70;;
22007;SDS011;11168;56.976;24.168;2022-09-09T01:33:13;0.90;;;0.70;;
22007;SDS011;11168;56.976;24.168;2022-09-09T01:35:57;2.45;;;0.73;;
22007;SDS011;11168;56.976;24.168;2022-09-09T01:38:29;2.20;;;0.70;;
22007;SDS011;11168;56.976;24.168;2022-09-09T01:40:58;0.95;;;0.70;;
22007;SDS011;11168;56.976;24.168;2022-09-09T01:43:25;2.13;;;0.65;;
22007;SDS011;11168;56.976;24.168;2022-09-09T01:45:54;5.95;;;0.90;;
22007;SDS011;11168;56.976;24.168;2022-09-09T01:48:23;2.88;;;0.80;;
22007;SDS011;11168;56.976;24.168;2022-09-09T01:50:51;2.30;;;0.60;;
22007;SDS011;11168;56.976;24.168;2022-09-09T01:53:19;1.00;;;0.70;;
22007;SDS011;11168;56.976;24.168;2022-09-09T01:55:53;1.88;;;0.70;;
22007;SDS011;11168;56.976;24.168;2022-09-09T02:00:56;2.20;;;0.70;;
22007;SDS011;11168;56.976;24.168;2022-09-09T02:03:27;1.95;;;0.80;;
22007;SDS011;11168;56.976;24.168;2022-09-09T02:06:01;2.55;;;0.80;;
22007;SDS011;11168;56.976;24.168;2022-09-09T02:13:26;1.65;;;0.75;;
22007;SDS011;11168;56.976;24.168;2022-09-09T02:15:57;0.70;;;0.70;;
22007;SDS011;11168;56.976;24.168;2022-09-09T02:18:28;1.15;;;0.80;;
22007;SDS011;11168;56.976;24.168;2022-09-09T02:20:57;0.98;;;0.73;;
22007;SDS011;11168;56.976;24.168;2022-09-09T02:23:25;1.15;;;0.70;;
22007;SDS011;11168;56.976;24.168;2022-09-09T02:25:53;3.75;;;0.70;;
22007;SDS011;11168;56.976;24.168;2022-09-09T02:28:21;1.00;;;0.75;;
22007;SDS011;11168;56.976;24.168;2022-09-09T02:30:51;1.95;;;0.70;;
22007;SDS011;11168;56.976;24.168;2022-09-09T02:33:25;2.00;;;0.75;;
22007;SDS011;11168;56.976;24.168;2022-09-09T02:35:54;2.95;;;0.88;;
22007;SDS011;11168;56.976;24.168;2022-09-09T02:38:28;1.67;;;0.70;;
22007;SDS011;11168;56.976;24.168;2022-09-09T02:40:56;1.20;;;0.68;;
22007;SDS011;11168;56.976;24.168;2022-09-09T02:43:24;3.90;;;0.82;;
22007;SDS011;11168;56.976;24.168;2022-09-09T02:46:20;2.55;;;1.10;;
22007;SDS011;11168;56.976;24.168;2022-09-09T02:48:52;2.25;;;0.77;;
22007;SDS011;11168;56.976;24.168;2022-09-09T02:53:53;1.50;;;1.00;;
22007;SDS011;11168;56.976;24.168;2022-09-09T02:56:24;1.38;;;0.90;;
22007;SDS011;11168;56.976;24.168;2022-09-09T02:58:53;1.90;;;0.90;;
22007;SDS011;11168;56.976;24.168;2022-09-09T03:01:20;0.85;;;0.50;;
22007;SDS011;11168;56.976;24.168;2022-09-09T03:03:48;1.58;;;0.80;;
22007;SDS011;11168;56.976;24.168;2022-09-09T03:06:16;3.55;;;0.90;;
22007;SDS011;11168;56.976;24.168;2022-09-09T03:08:43;1.42;;;0.82;;
22007;SDS011;11168;56.976;24.168;2022-09-09T03:11:15;0.90;;;0.90;;
22007;SDS011;11168;56.976;24.168;2022-09-09T03:13:42;2.60;;;0.68;;
22007;SDS011;11168;56.976;24.168;2022-09-09T03:16:09;1.75;;;0.80;;
22007;SDS011;11168;56.976;24.168;2022-09-09T03:18:37;1.50;;;1.20;;
22007;SDS011;11168;56.976;24.168;2022-09-09T03:21:04;3.15;;;0.88;;
22007;SDS011;11168;56.976;24.168;2022-09-09T03:23:33;1.90;;;0.90;;
22007;SDS011;11168;56.976;24.168;2022-09-09T03:26:00;1.92;;;0.82;;
22007;SDS011;11168;56.976;24.168;2022-09-09T03:28:27;1.35;;;0.80;;
22007;SDS011;11168;56.976;24.168;2022-09-09T03:30:58;1.45;;;0.80;;
22007;SDS011;11168;56.976;24.168;2022-09-09T03:33:26;1.17;;;0.90;;
22007;SDS011;11168;56.976;24.168;2022-09-09T03:35:53;1.90;;;0.85;;
22007;SDS011;11168;56.976;24.168;2022-09-09T03:38:25;1.88;;;0.90;;
22007;SDS011;11168;56.976;24.168;2022-09-09T03:40:56;3.08;;;1.10;;
22007;SDS011;11168;56.976;24.168;2022-09-09T03:43:24;1.77;;;1.30;;
22007;SDS011;11168;56.976;24.168;2022-09-09T03:45:52;1.67;;;1.10;;
22007;SDS011;11168;56.976;24.168;2022-09-09T03:48:23;5.70;;;1.48;;
22007;SDS011;11168;56.976;24.168;2022-09-09T03:50:52;2.58;;;1.10;;
22007;SDS011;11168;56.976;24.168;2022-09-09T03:53:20;2.40;;;1.10;;
22007;SDS011;11168;56.976;24.168;2022-09-09T03:55:49;1.20;;;1.00;;
22007;SDS011;11168;56.976;24.168;2022-09-09T03:58:18;1.58;;;0.90;;
22007;SDS011;11168;56.976;24.168;2022-09-09T04:00:56;1.90;;;1.15;;
22007;SDS011;11168;56.976;24.168;2022-09-09T04:03:24;3.78;;;1.52;;
22007;SDS011;11168;56.976;24.168;2022-09-09T04:05:54;2.50;;;1.23;;
22007;SDS011;11168;56.976;24.168;2022-09-09T04:08:22;2.78;;;1.00;;
22007;SDS011;11168;56.976;24.168;2022-09-09T04:10:52;3.75;;;1.20;;
22007;SDS011;11168;56.976;24.168;2022-09-09T04:13:21;2.25;;;1.20;;
22007;SDS011;11168;56.976;24.168;2022-09-09T04:15:52;2.15;;;1.00;;
22007;SDS011;11168;56.976;24.168;2022-09-09T04:18:19;3.38;;;1.00;;
22007;SDS011;11168;56.976;24.168;2022-09-09T04:20:47;2.08;;;1.00;;
22007;SDS011;11168;56.976;24.168;2022-09-09T04:23:15;4.15;;;1.30;;
22007;SDS011;11168;56.976;24.168;2022-09-09T04:25:46;1.20;;;1.00;;
22007;SDS011;11168;56.976;24.168;2022-09-09T04:28:14;2.03;;;1.40;;
22007;SDS011;11168;56.976;24.168;2022-09-09T04:30:42;3.15;;;1.13;;
22007;SDS011;11168;56.976;24.168;2022-09-09T04:33:10;1.67;;;1.10;;
22007;SDS011;11168;56.976;24.168;2022-09-09T04:35:38;4.15;;;1.40;;
22007;SDS011;11168;56.976;24.168;2022-09-09T04:38:06;2.55;;;1.20;;
22007;SDS011;11168;56.976;24.168;2022-09-09T04:40:35;4.05;;;1.20;;
22007;SDS011;11168;56.976;24.168;2022-09-09T04:43:03;3.00;;;1.27;;
22007;SDS011;11168;56.976;24.168;2022-09-09T04:45:31;5.85;;;1.35;;
22007;SDS011;11168;56.976;24.168;2022-09-09T04:47:59;3.45;;;1.00;;
22007;SDS011;11168;56.976;24.168;2022-09-09T04:50:26;2.80;;;1.38;;
22007;SDS011;11168;56.976;24.168;2022-09-09T04:52:54;2.00;;;1.40;;
22007;SDS011;11168;56.976;24.168;2022-09-09T04:55:21;2.63;;;1.70;;
22007;SDS011;11168;56.976;24.168;2022-09-09T04:57:49;1.90;;;1.30;;
22007;SDS011;11168;56.976;24.168;2022-09-09T05:00:16;2.65;;;1.20;;
22007;SDS011;11168;56.976;24.168;2022-09-09T05:02:45;2.15;;;1.30;;
22007;SDS011;11168;56.976;24.168;2022-09-09T05:05:13;3.28;;;1.50;;
22007;SDS011;11168;56.976;24.168;2022-09-09T05:07:40;5.70;;;1.50;;
22007;SDS011;11168;56.976;24.168;2022-09-09T05:10:08;3.47;;;1.20;;
22007;SDS011;11168;56.976;24.168;2022-09-09T05:12:36;2.17;;;1.13;;
22007;SDS011;11168;56.976;24.168;2022-09-09T05:15:03;1.70;;;1.10;;
22007;SDS011;11168;56.976;24.168;2022-09-09T05:17:31;1.80;;;1.30;;
22007;SDS011;11168;56.976;24.168;2022-09-09T05:19:58;2.50;;;1.40;;
22007;SDS011;11168;56.976;24.168;2022-09-09T05:22:26;7.35;;;1.30;;
22007;SDS011;11168;56.976;24.168;2022-09-09T05:24:53;6.15;;;1.42;;
22007;SDS011;11168;56.976;24.168;2022-09-09T05:27:20;3.20;;;1.13;;
22007;SDS011;11168;56.976;24.168;2022-09-09T05:29:48;3.13;;;1.25;;
22007;SDS011;11168;56.976;24.168;2022-09-09T05:32:15;2.03;;;1.27;;
22007;SDS011;11168;56.976;24.168;2022-09-09T05:34:43;1.50;;;1.27;;
22007;SDS011;11168;56.976;24.168;2022-09-09T05:37:10;2.28;;;1.30;;
22007;SDS011;11168;56.976;24.168;2022-09-09T05:39:37;2.67;;;1.40;;
22007;SDS011;11168;56.976;24.168;2022-09-09T05:42:05;2.35;;;1.40;;
22007;SDS011;11168;56.976;24.168;2022-09-09T05:44:32;4.05;;;1.30;;
22007;SDS011;11168;56.976;24.168;2022-09-09T05:46:59;2.60;;;1.25;;
22007;SDS011;11168;56.976;24.168;2022-09-09T05:49:27;4.95;;;1.50;;
22007;SDS011;11168;56.976;24.168;2022-09-09T05:51:54;1.75;;;1.20;;
22007;SDS011;11168;56.976;24.168;2022-09-09T05:54:21;8.25;;;1.27;;
22007;SDS011;11168;56.976;24.168;2022-09-09T05:56:49;1.48;;;1.10;;
22007;SDS011;11168;56.976;24.168;2022-09-09T05:59:17;10.45;;;1.63;;
22007;SDS011;11168;56.976;24.168;2022-09-09T06:01:44;7.22;;;1.30;;
22007;SDS011;11168;56.976;24.168;2022-09-09T06:04:12;2.45;;;1.40;;
22007;SDS011;11168;56.976;24.168;2022-09-09T06:06:39;7.68;;;1.80;;
22007;SDS011;11168;56.976;24.168;2022-09-09T06:09:08;4.57;;;1.60;;
22007;SDS011;11168;56.976;24.168;2022-09-09T06:11:37;4.35;;;1.90;;
22007;SDS011;11168;56.976;24.168;2022-09-09T06:14:05;3.80;;;1.60;;
22007;SDS011;11168;56.976;24.168;2022-09-09T06:16:33;6.35;;;1.75;;
22007;SDS011;11168;56.976;24.168;2022-09-09T06:19:01;5.25;;;1.83;;
22007;SDS011;11168;56.976;24.168;2022-09-09T06:21:33;2.25;;;1.60;;
22007;SDS011;11168;56.976;24.168;2022-09-09T06:24:02;6.20;;;1.50;;
22007;SDS011;11168;56.976;24.168;2022-09-09T06:26:30;4.10;;;1.40;;
22007;SDS011;11168;56.976;24.168;2022-09-09T06:28:59;3.50;;;1.50;;
22007;SDS011;11168;56.976;24.168;2022-09-09T06:31:27;2.85;;;1.65;;
22007;SDS011;11168;56.976;24.168;2022-09-09T06:33:57;5.75;;;1.80;;
22007;SDS011;11168;56.976;24.168;2022-09-09T06:36:26;3.75;;;1.55;;
22007;SDS011;11168;56.976;24.168;2022-09-09T06:38:53;3.25;;;1.05;;
22007;SDS011;11168;56.976;24.168;2022-09-09T06:41:24;2.38;;;1.50;;
22007;SDS011;11168;56.976;24.168;2022-09-09T06:43:52;3.53;;;1.20;;
22007;SDS011;11168;56.976;24.168;2022-09-09T06:46:30;4.13;;;1.52;;
22007;SDS011;11168;56.976;24.168;2022-09-09T06:48:59;1.10;;;1.00;;
22007;SDS011;11168;56.976;24.168;2022-09-09T06:51:28;5.93;;;1.30;;
22007;SDS011;11168;56.976;24.168;2022-09-09T06:53:56;3.22;;;1.42;;
22007;SDS011;11168;56.976;24.168;2022-09-09T06:56:28;2.17;;;1.40;;
22007;SDS011;11168;56.976;24.168;2022-09-09T07:01:23;3.75;;;1.33;;
22007;SDS011;11168;56.976;24.168;2022-09-09T07:03:52;1.88;;;1.05;;
22007;SDS011;11168;56.976;24.168;2022-09-09T07:06:21;7.28;;;1.50;;
22007;SDS011;11168;56.976;24.168;2022-09-09T07:08:52;2.83;;;1.15;;
22007;SDS011;11168;56.976;24.168;2022-09-09T07:11:23;6.25;;;1.13;;
22007;SDS011;11168;56.976;24.168;2022-09-09T07:13:52;3.15;;;1.17;;
22007;SDS011;11168;56.976;24.168;2022-09-09T07:16:20;4.97;;;1.15;;
22007;SDS011;11168;56.976;24.168;2022-09-09T07:18:50;4.15;;;0.90;;
22007;SDS011;11168;56.976;24.168;2022-09-09T07:21:17;3.83;;;0.95;;
22007;SDS011;11168;56.976;24.168;2022-09-09T07:23:45;2.65;;;0.80;;
22007;SDS011;11168;56.976;24.168;2022-09-09T07:26:16;2.15;;;0.60;;
22007;SDS011;11168;56.976;24.168;2022-09-09T07:28:45;2.13;;;0.88;;
22007;SDS011;11168;56.976;24.168;2022-09-09T07:31:14;4.65;;;1.05;;
22007;SDS011;11168;56.976;24.168;2022-09-09T07:33:43;2.10;;;1.00;;
22007;SDS011;11168;56.976;24.168;2022-09-09T07:36:18;6.43;;;0.98;;
22007;SDS011;11168;56.976;24.168;2022-09-09T07:38:49;1.40;;;0.80;;
22007;SDS011;11168;56.976;24.168;2022-09-09T07:41:19;1.80;;;1.00;;
22007;SDS011;11168;56.976;24.168;2022-09-09T07:43:47;3.08;;;0.82;;
22007;SDS011;11168;56.976;24.168;2022-09-09T07:46:15;2.45;;;0.93;;
22007;SDS011;11168;56.976;24.168;2022-09-09T07:48:46;1.48;;;0.90;;
22007;SDS011;11168;56.976;24.168;2022-09-09T07:51:27;1.33;;;0.75;;
22007;SDS011;11168;56.976;24.168;2022-09-09T07:53:56;2.13;;;1.00;;
22007;SDS011;11168;56.976;24.168;2022-09-09T07:56:28;2.28;;;0.95;;
22007;SDS011;11168;56.976;24.168;2022-09-09T07:58:59;1.20;;;0.80;;
22007;SDS011;11168;56.976;24.168;2022-09-09T08:01:29;3.13;;;0.90;;
22007;SDS011;11168;56.976;24.168;2022-09-09T08:04:03;2.05;;;0.98;;
22007;SDS011;11168;56.976;24.168;2022-09-09T08:06:33;1.30;;;0.82;;
22007;SDS011;11168;56.976;24.168;2022-09-09T08:09:01;3.28;;;0.95;;
22007;SDS011;11168;56.976;24.168;2022-09-09T08:11:29;2.47;;;1.00;;
22007;SDS011;11168;56.976;24.168;2022-09-09T08:14:03;1.08;;;0.60;;
22007;SDS011;11168;56.976;24.168;2022-09-09T08:16:32;3.72;;;0.80;;
22007;SDS011;11168;56.976;24.168;2022-09-09T08:19:00;5.30;;;0.80;;
22007;SDS011;11168;56.976;24.168;2022-09-09T08:21:28;5.95;;;0.73;;
22007;SDS011;11168;56.976;24.168;2022-09-09T08:23:56;0.70;;;0.70;;
22007;SDS011;11168;56.976;24.168;2022-09-09T08:26:24;3.08;;;0.90;;
22007;SDS011;11168;56.976;24.168;2022-09-09T08:28:53;4.53;;;0.80;;
22007;SDS011;11168;56.976;24.168;2022-09-09T08:31:23;2.15;;;0.60;;
22007;SDS011;11168;56.976;24.168;2022-09-09T08:33:50;1.75;;;0.70;;
22007;SDS011;11168;56.976;24.168;2022-09-09T08:36:19;3.03;;;0.90;;
22007;SDS011;11168;56.976;24.168;2022-09-09T08:38:48;0.82;;;0.60;;
22007;SDS011;11168;56.976;24.168;2022-09-09T08:43:58;2.92;;;0.60;;
22007;SDS011;11168;56.976;24.168;2022-09-09T08:46:41;3.25;;;1.10;;
22007;SDS011;11168;56.976;24.168;2022-09-09T08:51:37;1.73;;;0.70;;
22007;SDS011;11168;56.976;24.168;2022-09-09T08:54:04;2.22;;;0.70;;
22007;SDS011;11168;56.976;24.168;2022-09-09T08:56:31;2.13;;;0.60;;
22007;SDS011;11168;56.976;24.168;2022-09-09T08:59:00;0.63;;;0.50;;
22007;SDS011;11168;56.976;24.168;2022-09-09T09:06:56;3.83;;;0.68;;
22007;SDS011;11168;56.976;24.168;2022-09-09T09:12:02;2.47;;;0.55;;
22007;SDS011;11168;56.976;24.168;2022-09-09T09:14:34;4.68;;;0.60;;
22007;SDS011;11168;56.976;24.168;2022-09-09T09:19:33;0.80;;;0.40;;
22007;SDS011;11168;56.976;24.168;2022-09-09T09:24:53;0.73;;;0.40;;
22007;SDS011;11168;56.976;24.168;2022-09-09T09:27:31;0.95;;;0.55;;
22007;SDS011;11168;56.976;24.168;2022-09-09T09:30:00;1.98;;;0.52;;
22007;SDS011;11168;56.976;24.168;2022-09-09T09:33:02;6.15;;;0.57;;
22007;SDS011;11168;56.976;24.168;2022-09-09T09:35:32;1.73;;;0.60;;
22007;SDS011;11168;56.976;24.168;2022-09-09T09:38:15;0.98;;;0.60;;
22007;SDS011;11168;56.976;24.168;2022-09-09T09:41:03;1.40;;;0.52;;
22007;SDS011;11168;56.976;24.168;2022-09-09T09:43:31;2.53;;;0.60;;
22007;SDS011;11168;56.976;24.168;2022-09-09T09:45:59;4.88;;;0.70;;
22007;SDS011;11168;56.976;24.168;2022-09-09T09:48:42;2.35;;;0.52;;
22007;SDS011;11168;56.976;24.168;2022-09-09T09:51:13;2.63;;;0.60;;
22007;SDS011;11168;56.976;24.168;2022-09-09T09:53:42;0.93;;;0.50;;
22007;SDS011;11168;56.976;24.168;2022-09-09T09:56:10;2.05;;;0.52;;
22007;SDS011;11168;56.976;24.168;2022-09-09T10:03:51;2.20;;;0.50;;
22007;SDS011;11168;56.976;24.168;2022-09-09T10:06:35;2.90;;;0.40;;
22007;SDS011;11168;56.976;24.168;2022-09-09T10:09:17;2.30;;;0.52;;
22007;SDS011;11168;56.976;24.168;2022-09-09T10:11:51;0.93;;;0.40;;
22007;SDS011;11168;56.976;24.168;2022-09-09T10:14:21;0.93;;;0.52;;
22007;SDS011;11168;56.976;24.168;2022-09-09T10:19:19;2.47;;;0.70;;
22007;SDS011;11168;56.976;24.168;2022-09-09T10:32:05;2.53;;;0.70;;
22007;SDS011;11168;56.976;24.168;2022-09-09T10:39:48;6.38;;;0.63;;
22007;SDS011;11168;56.976;24.168;2022-09-09T10:42:20;3.28;;;0.80;;
22007;SDS011;11168;56.976;24.168;2022-09-09T10:52:24;2.85;;;0.50;;
22007;SDS011;11168;56.976;24.168;2022-09-09T10:55:09;9.00;;;1.10;;
22007;SDS011;11168;56.976;24.168;2022-09-09T11:00:16;10.57;;;3.72;;
22007;SDS011;11168;56.976;24.168;2022-09-09T11:02:44;11.00;;;2.60;;
22007;SDS011;11168;56.976;24.168;2022-09-09T11:07:50;14.27;;;2.08;;
22007;SDS011;11168;56.976;24.168;2022-09-09T11:10:24;3.95;;;0.70;;
22007;SDS011;11168;56.976;24.168;2022-09-09T11:12:56;3.63;;;0.93;;
22007;SDS011;11168;56.976;24.168;2022-09-09T11:15:59;4.03;;;0.70;;
22007;SDS011;11168;56.976;24.168;2022-09-09T11:18:21;5.80;;;1.08;;
22007;SDS011;11168;56.976;24.168;2022-09-09T11:20:51;3.90;;;0.93;;
22007;SDS011;11168;56.976;24.168;2022-09-09T11:23:34;7.32;;;1.05;;
22007;SDS011;11168;56.976;24.168;2022-09-09T11:26:07;1.60;;;0.70;;
22007;SDS011;11168;56.976;24.168;2022-09-09T11:28:49;1.93;;;0.67;;
22007;SDS011;11168;56.976;24.168;2022-09-09T11:44:39;11.45;;;0.90;;
22007;SDS011;11168;56.976;24.168;2022-09-09T11:47:19;8.90;;;1.15;;
22007;SDS011;11168;56.976;24.168;2022-09-09T11:49:49;3.25;;;0.60;;
22007;SDS011;11168;56.976;24.168;2022-09-09T11:52:35;2.45;;;0.80;;
22007;SDS011;11168;56.976;24.168;2022-09-09T11:55:10;2.00;;;0.50;;
22007;SDS011;11168;56.976;24.168;2022-09-09T11:57:38;2.25;;;0.70;;
22007;SDS011;11168;56.976;24.168;2022-09-09T12:00:06;5.43;;;1.00;;
22007;SDS011;11168;56.976;24.168;2022-09-09T12:02:34;3.38;;;0.73;;
22007;SDS011;11168;56.976;24.168;2022-09-09T12:07:36;3.30;;;0.50;;
22007;SDS011;11168;56.976;24.168;2022-09-09T12:12:36;6.82;;;0.98;;
22007;SDS011;11168;56.976;24.168;2022-09-09T12:17:57;1.80;;;0.77;;
22007;SDS011;11168;56.976;24.168;2022-09-09T12:20:35;2.20;;;1.00;;
22007;SDS011;11168;56.976;24.168;2022-09-09T12:28:04;3.72;;;1.00;;
22007;SDS011;11168;56.976;24.168;2022-09-09T12:33:13;4.80;;;1.10;;
22007;SDS011;11168;56.976;24.168;2022-09-09T12:35:43;1.63;;;0.52;;
22007;SDS011;11168;56.976;24.168;2022-09-09T12:38:13;4.10;;;0.70;;
22007;SDS011;11168;56.976;24.168;2022-09-09T12:40:42;3.10;;;0.80;;
22007;SDS011;11168;56.976;24.168;2022-09-09T12:43:21;1.92;;;0.70;;
22007;SDS011;11168;56.976;24.168;2022-09-09T12:45:49;4.57;;;1.15;;
22007;SDS011;11168;56.976;24.168;2022-09-09T12:48:25;2.47;;;0.80;;
22007;SDS011;11168;56.976;24.168;2022-09-09T12:50:54;4.57;;;0.80;;
22007;SDS011;11168;56.976;24.168;2022-09-09T12:53:32;1.75;;;0.77;;
22007;SDS011;11168;56.976;24.168;2022-09-09T12:56:09;2.70;;;0.90;;
22007;SDS011;11168;56.976;24.168;2022-09-09T12:58:46;2.55;;;0.60;;
22007;SDS011;11168;56.976;24.168;2022-09-09T13:01:20;10.80;;;1.90;;
22007;SDS011;11168;56.976;24.168;2022-09-09T13:03:48;4.40;;;1.60;;
22007;SDS011;11168;56.976;24.168;2022-09-09T13:06:19;4.50;;;1.05;;
22007;SDS011;11168;56.976;24.168;2022-09-09T13:08:54;4.53;;;1.20;;
22007;SDS011;11168;56.976;24.168;2022-09-09T13:11:24;6.68;;;0.90;;
22007;SDS011;11168;56.976;24.168;2022-09-09T13:13:55;3.53;;;0.88;;
22007;SDS011;11168;56.976;24.168;2022-09-09T13:16:26;3.17;;;0.73;;
22007;SDS011;11168;56.976;24.168;2022-09-09T13:19:08;1.85;;;0.65;;
22007;SDS011;11168;56.976;24.168;2022-09-09T13:21:39;1.88;;;1.00;;
22007;SDS011;11168;56.976;24.168;2022-09-09T13:24:22;3.08;;;0.60;;
22007;SDS011;11168;56.976;24.168;2022-09-09T13:26:58;3.47;;;1.00;;
22007;SDS011;11168;56.976;24.168;2022-09-09T13:29:28;2.65;;;0.52;;
22007;SDS011;11168;56.976;24.168;2022-09-09T13:34:49;2.50;;;0.73;;
22007;SDS011;11168;56.976;24.168;2022-09-09T13:37:20;5.90;;;0.90;;
22007;SDS011;11168;56.976;24.168;2022-09-09T13:39:52;3.92;;;0.85;;
22007;SDS011;11168;56.976;24.168;2022-09-09T13:42:24;5.60;;;1.50;;
22007;SDS011;11168;56.976;24.168;2022-09-09T13:44:52;2.00;;;0.95;;
22007;SDS011;11168;56.976;24.168;2022-09-09T13:47:21;1.90;;;0.65;;
22007;SDS011;11168;56.976;24.168;2022-09-09T13:49:49;2.95;;;0.65;;
22007;SDS011;11168;56.976;24.168;2022-09-09T13:52:17;2.08;;;0.70;;
22007;SDS011;11168;56.976;24.168;2022-09-09T13:54:48;4.28;;;0.60;;
22007;SDS011;11168;56.976;24.168;2022-09-09T13:57:17;2.47;;;0.70;;
22007;SDS011;11168;56.976;24.168;2022-09-09T13:59:45;2.47;;;0.63;;
22007;SDS011;11168;56.976;24.168;2022-09-09T14:02:32;2.65;;;0.52;;
22007;SDS011;11168;56.976;24.168;2022-09-09T14:05:00;1.10;;;0.57;;
22007;SDS011;11168;56.976;24.168;2022-09-09T14:07:27;6.22;;;0.82;;
22007;SDS011;11168;56.976;24.168;2022-09-09T14:09:55;4.82;;;0.70;;
22007;SDS011;11168;56.976;24.168;2022-09-09T14:12:23;2.85;;;0.57;;
22007;SDS011;11168;56.976;24.168;2022-09-09T14:14:50;4.68;;;0.73;;
22007;SDS011;11168;56.976;24.168;2022-09-09T14:17:18;5.43;;;0.50;;
22007;SDS011;11168;56.976;24.168;2022-09-09T14:19:45;2.85;;;0.60;;
22007;SDS011;11168;56.976;24.168;2022-09-09T14:22:12;2.55;;;0.43;;
22007;SDS011;11168;56.976;24.168;2022-09-09T14:24:39;6.85;;;0.63;;
22007;SDS011;11168;56.976;24.168;2022-09-09T14:27:07;1.98;;;0.70;;
22007;SDS011;11168;56.976;24.168;2022-09-09T14:29:34;2.65;;;0.77;;
22007;SDS011;11168;56.976;24.168;2022-09-09T14:32:02;1.10;;;0.60;;
22007;SDS011;11168;56.976;24.168;2022-09-09T14:34:29;2.05;;;0.68;;
22007;SDS011;11168;56.976;24.168;2022-09-09T14:36:58;4.00;;;0.63;;
22007;SDS011;11168;56.976;24.168;2022-09-09T14:39:25;7.22;;;0.88;;
22007;SDS011;11168;56.976;24.168;2022-09-09T14:41:53;2.22;;;0.77;;
22007;SDS011;11168;56.976;24.168;2022-09-09T14:44:20;5.63;;;0.80;;
22007;SDS011;11168;56.976;24.168;2022-09-09T14:46:48;6.40;;;1.55;;
22007;SDS011;11168;56.976;24.168;2022-09-09T14:49:16;5.30;;;1.10;;
22007;SDS011;11168;56.976;24.168;2022-09-09T14:51:43;4.72;;;0.95;;
22007;SDS011;11168;56.976;24.168;2022-09-09T14:54:11;3.05;;;1.00;;
22007;SDS011;11168;56.976;24.168;2022-09-09T14:56:38;5.22;;;0.82;;
22007;SDS011;11168;56.976;24.168;2022-09-09T14:59:05;2.45;;;0.70;;
22007;SDS011;11168;56.976;24.168;2022-09-09T15:01:33;5.35;;;1.17;;
22007;SDS011;11168;56.976;24.168;2022-09-09T15:04:01;4.43;;;0.73;;
22007;SDS011;11168;56.976;24.168;2022-09-09T15:06:30;2.10;;;0.57;;
22007;SDS011;11168;56.976;24.168;2022-09-09T15:08:59;5.95;;;0.77;;
22007;SDS011;11168;56.976;24.168;2022-09-09T15:11:28;7.30;;;1.98;;
22007;SDS011;11168;56.976;24.168;2022-09-09T15:13:57;4.40;;;1.20;;
22007;SDS011;11168;56.976;24.168;2022-09-09T15:16:25;2.50;;;0.80;;
22007;SDS011;11168;56.976;24.168;2022-09-09T15:18:54;6.82;;;0.90;;
22007;SDS011;11168;56.976;24.168;2022-09-09T15:21:24;6.35;;;0.60;;
22007;SDS011;11168;56.976;24.168;2022-09-09T15:23:51;8.38;;;0.88;;
22007;SDS011;11168;56.976;24.168;2022-09-09T15:26:19;4.00;;;0.95;;
22007;SDS011;11168;56.976;24.168;2022-09-09T15:28:47;5.07;;;1.55;;
22007;SDS011;11168;56.976;24.168;2022-09-09T15:31:19;1.67;;;0.80;;
22007;SDS011;11168;56.976;24.168;2022-09-09T15:33:51;3.33;;;1.13;;
22007;SDS011;11168;56.976;24.168;2022-09-09T15:36:22;3.28;;;0.55;;
22007;SDS011;11168;56.976;24.168;2022-09-09T15:38:50;4.32;;;0.75;;
22007;SDS011;11168;56.976;24.168;2022-09-09T15:41:19;3.05;;;0.95;;
22007;SDS011;11168;56.976;24.168;2022-09-09T15:43:56;2.10;;;0.85;;
22007;SDS011;11168;56.976;24.168;2022-09-09T15:46:24;6.63;;;0.75;;
22007;SDS011;11168;56.976;24.168;2022-09-09T15:48:56;6.78;;;1.15;;
22007;SDS011;11168;56.976;24.168;2022-09-09T15:51:24;4.57;;;0.90;;
22007;SDS011;11168;56.976;24.168;2022-09-09T15:54:12;1.77;;;0.70;;
22007;SDS011;11168;56.976;24.168;2022-09-09T15:56:40;2.65;;;0.75;;
22007;SDS011;11168;56.976;24.168;2022-09-09T15:59:07;2.28;;;0.90;;
22007;SDS011;11168;56.976;24.168;2022-09-09T16:01:35;1.92;;;0.90;;
22007;SDS011;11168;56.976;24.168;2022-09-09T16:04:04;5.05;;;0.80;;
22007;SDS011;11168;56.976;24.168;2022-09-09T16:06:31;1.58;;;0.98;;
22007;SDS011;11168;56.976;24.168;2022-09-09T16:09:00;1.30;;;0.63;;
22007;SDS011;11168;56.976;24.168;2022-09-09T16:11:33;2.33;;;1.20;;
22007;SDS011;11168;56.976;24.168;2022-09-09T16:14:01;4.70;;;1.48;;
22007;SDS011;11168;56.976;24.168;2022-09-09T16:16:30;4.63;;;1.00;;
22007;SDS011;11168;56.976;24.168;2022-09-09T16:18:58;3.60;;;1.52;;
22007;SDS011;11168;56.976;24.168;2022-09-09T16:21:27;9.95;;;1.38;;
22007;SDS011;11168;56.976;24.168;2022-09-09T16:26:28;3.78;;;1.20;;
22007;SDS011;11168;56.976;24.168;2022-09-09T16:28:57;1.70;;;0.90;;
22007;SDS011;11168;56.976;24.168;2022-09-09T16:31:27;6.50;;;1.13;;
22007;SDS011;11168;56.976;24.168;2022-09-09T16:33:55;6.32;;;1.10;;
22007;SDS011;11168;56.976;24.168;2022-09-09T16:36:25;5.95;;;1.20;;
22007;SDS011;11168;56.976;24.168;2022-09-09T16:38:52;4.82;;;1.17;;
22007;SDS011;11168;56.976;24.168;2022-09-09T16:41:21;5.57;;;1.10;;
22007;SDS011;11168;56.976;24.168;2022-09-09T16:43:56;8.18;;;1.38;;
22007;SDS011;11168;56.976;24.168;2022-09-09T16:46:24;5.97;;;1.50;;
22007;SDS011;11168;56.976;24.168;2022-09-09T16:48:53;3.35;;;1.30;;
22007;SDS011;11168;56.976;24.168;2022-09-09T16:51:23;6.93;;;1.23;;
22007;SDS011;11168;56.976;24.168;2022-09-09T16:53:51;6.55;;;1.40;;
22007;SDS011;11168;56.976;24.168;2022-09-09T16:56:20;7.47;;;1.50;;
22007;SDS011;11168;56.976;24.168;2022-09-09T16:58:51;4.88;;;1.50;;
22007;SDS011;11168;56.976;24.168;2022-09-09T17:01:22;5.63;;;1.73;;
22007;SDS011;11168;56.976;24.168;2022-09-09T17:03:56;6.40;;;1.90;;
22007;SDS011;11168;56.976;24.168;2022-09-09T17:06:27;4.47;;;1.95;;
22007;SDS011;11168;56.976;24.168;2022-09-09T17:08:59;4.40;;;1.63;;
22007;SDS011;11168;56.976;24.168;2022-09-09T17:11:27;7.55;;;1.83;;